Terminal Aerodrome Forecast
Issued by NWS Mt. Holly, NJ

Home | Current Version | Previous Version | Text Only | Print | Product List | Glossary On
Versions: 1 2 3 4 5 6 7 8 9 10 11 12 13 14 15 16 17
517
FTUS41 KPHI 261120
TAFTTN
TAF
KTTN 261120Z 2612/2712 07012KT P6SM OVC008
     FM261500 09013KT 6SM BR OVC006
     FM262000 09012KT 3SM -DZ BR OVC004
     FM270200 09008KT 3SM -SHRA BR OVC004=

USA.gov is the U.S. government's official web portal to all federal, state and local government web resources and services.